Minot, ND

12:00 AM CDT on August 30, 2016 (GMT -0500)
Edgeview Estates | | Change Station

Elev 1752 ft 48.21 °N, 101.33 °W | Updated 3 seconds ago

Clear
Clear
60.7 °F
Feels Like 60.7 °F
N
4.0
Wind Variable Wind from SSE
Gusts 5.0 mph

Today
High -- | Low -- °F
--% Chance of Precip.
Yesterday
High -- | Low -- °F
Precip. -- in
Pressure 30.24 in
Visibility 10.0 miles
Clouds Clear
Dew Point 44 °F
Humidity 55%
Rainfall 0.00 in
Snow Depth Not available.
7:00 AM 8:29 PM
Waning Crescent, 5% visible
METAR KMOT 300454Z AUTO 15003KT 10SM CLR 16/08 A3024 RMK AO2 SLP240 T01610083
Pressure 30.24 in
Visibility 10.0 miles
Clouds Clear
Dew Point 44 °F
Humidity 55%
Rainfall 0.00 in
Snow Depth Not available.
7:00 AM 8:29 PM
Waning Crescent, 5% visible
METAR KMOT 300454Z AUTO 15003KT 10SM CLR 16/08 A3024 RMK AO2 SLP240 T01610083

10-Day Weather Forecast

Almanac

Astronomy

Aug. 30, 2016 Rise Set
Actual Time
Civil Twilight
Nautical Twilight
Astronomical Twilight
Moon
Length of Visible Light
Length of Day
Tomorrow will be .
, % of the Moon is Illuminated

Today's Extremes

State Highs State Lows

Community

WunderPhotos

Upload Photos

1,935,791 photos uploaded!

WunderBlog® & News

Nearby

Air Quality

  Air Quality AQ Index Pollutant
Not available.

Snow Depth

Station Depth Elevation

Earthquake Activity

City Distance Mag. Time & Date
Minimum magnitude displayed is 2.5.

Coastal Water Temperatures

Place Temperature

Stations

Nearby Weather Stations

Station Location Temp. Windchill Dew Point Humidity Wind Precip. Elev Updated Type
                   

Watches & Warnings

There are currently no watches in effect.